This is the latest recevied weather packets stored in our database for station/object HB9KBJ-8. If no packets are shown the sender has not sent any weather packets the latest 10 day(s).
| Time | Temp. | Humidity | Pressure | Rain* | Wind** | Luminosity | Snow |
|---|---|---|---|---|---|---|---|
| 1777627943 | 16.11° C | 39% | 1025.2 hPa | 0 mm | - | 715 W/m² | - |
| 1777627655 | 15.56° C | 42% | 1025.1 hPa | 0 mm | - | 707 W/m² | - |
| 1777627350 | 14.44° C | 43% | 1025.2 hPa | 0 mm | - | 700 W/m² | - |
| 1777627044 | 15° C | 42% | 1025.2 hPa | 0 mm | - | 691 W/m² | - |
| 1777626737 | 14.44° C | 43% | 1025.2 hPa | 0 mm | - | 684 W/m² | - |
| 1777626436 | 14.44° C | 43% | 1025.2 hPa | 0 mm | - | 675 W/m² | - |
| 1777626150 | 13.89° C | 42% | 1025.1 hPa | 0 mm | - | 666 W/m² | - |
| 1777625849 | 14.44° C | 41% | 1025.1 hPa | 0 mm | - | 657 W/m² | - |
| 1777625548 | 15° C | 39% | 1025.2 hPa | 0 mm | - | 649 W/m² | - |
| 1777625243 | 15.56° C | 39% | 1025.1 hPa | 0 mm | - | 636 W/m² | - |
| 1777624939 | 13.89° C | 42% | 1025.1 hPa | 0 mm | - | 626 W/m² | - |
| 1777624640 | 13.89° C | 43% | 1025.2 hPa | 0 mm | - | 617 W/m² | - |
| 1777624353 | 13.89° C | 43% | 1025.2 hPa | 0 mm | - | 606 W/m² | - |
| 1777624043 | 13.89° C | 43% | 1025.2 hPa | 0 mm | - | 596 W/m² | - |
| 1777623736 | 12.78° C | 43% | 1025.2 hPa | 0 mm | - | 585 W/m² | - |
| 1777623453 | 12.78° C | 42% | 1025.3 hPa | 0 mm | - | 573 W/m² | - |
| 1777623143 | 12.78° C | 41% | 1025.3 hPa | 0 mm | - | 563 W/m² | - |
| 1777622855 | 12.78° C | 41% | 1025.3 hPa | 0 mm | - | 552 W/m² | - |
| 1777622535 | 12.78° C | 42% | 1025.3 hPa | 0 mm | - | 540 W/m² | - |
| 1777622244 | 12.78° C | 42% | 1025.2 hPa | 0 mm | - | 526 W/m² | - |
| 1777621954 | 11.67° C | 46% | 1025.3 hPa | 0 mm | - | 513 W/m² | - |
| 1777621644 | 11.67° C | 43% | 1025.3 hPa | 0 mm | - | 503 W/m² | - |
| 1777621337 | 12.22° C | 41% | 1025.3 hPa | 0 mm | - | 490 W/m² | - |
| 1777621050 | 12.22° C | 41% | 1025.3 hPa | 0 mm | - | 480 W/m² | - |
| 1777620746 | 12.22° C | 40% | 1025.3 hPa | 0 mm | - | 468 W/m² | - |
* Rain latest hour (hover to see other rain measurements)
** Current wind speed in m/s (hover to see current wind gust speed)